Flight Track Log - Related Links

Times and Time Zones

All times are in EDT time to prevent confusion due to time zone crossing. See the N983CE flight status page for this flight to view local times or setup timezone preferences in your user account.

Time Position Orientation Groundspeed Altitude Reporting Facility
EDT Latitude Longitude Course Direction KTS MPH feet Rate Location/Type
Mon 11:40:39 AM 39.3500 -84.4833 41° Northeast 157 181 2,200  Level Cincinnati TRACON
Mon 11:42:20 AM 39.4069 -84.4197 41° Northeast 281 323 6,800 2,889 Climbing Indianapolis Center
Mon 11:43:21 AM 39.4331 -84.5169 289° West 288 331 10,000 2,585 Climbing Indianapolis Center
Mon 11:44:23 AM 39.4661 -84.6097 295° West 282 325 12,100 2,468 Climbing Indianapolis Center
Mon 11:45:25 AM 39.5269 -84.6953 313° West 316 364 15,100 2,177 Climbing Indianapolis Center
Mon 11:46:27 AM 39.5475 -84.8094 283° West 331 381 16,600 2,049 Climbing Indianapolis Center
Mon 11:47:28 AM 39.5614 -84.9331 278° West 334 384 19,300 2,203 Climbing Indianapolis Center
Mon 11:49:24 AM 39.5864 -85.1806 278° West 354 407 23,100 1,950 Climbing Chicago Center
Mon 11:51:00 AM 39.5441 -85.4091 257° West  Level FlightAware Approximate
Mon 11:52:08 AM 39.6206 -85.5358 257° West 366 421 28,400  Level Kansas City Center
Mon 11:52:30 AM 39.6264 -85.5781 280° West 375 432 28,900 1,333 Climbing Chicago Center
Mon 11:53:38 AM 39.6444 -85.7444 278° West 387 445 30,400 1,573 Climbing Indianapolis Center
Mon 11:55:14 AM 39.6697 -85.9939 278° West 403 464 33,200 1,548 Climbing Kansas City Center
Mon 11:55:42 AM 39.6722 -86.0314 275° West 400 460 33,600 1,016 Climbing Indianapolis Center
Mon 11:57:18 AM 39.6950 -86.2769 277° West 397 457 35,300 976 Climbing Kansas City Center
Mon 11:57:45 AM 39.7003 -86.3328 277° West 398 458 35,600 472 Climbing Indianapolis Center
Mon 11:58:47 AM 39.7133 -86.4731 277° West 406 467 36,000 130 Climbing Indianapolis Center
Mon 12:00:50 PM 39.7458 -86.8217 277° West 452 520 36,000  Level Indianapolis Center
Mon 12:01:52 PM 39.7606 -86.9881 277° West 463 533 36,000  Level Indianapolis Center
Mon 12:02:54 PM 39.7744 -87.1564 276° West 468 539 36,000  Level Indianapolis Center
Mon 12:04:32 PM 39.7983 -87.4408 276° West 471 542 36,000 263 Level Kansas City Center
Mon 12:05:34 PM 39.8119 -87.6094 276° West 469 540 36,700 690 Climbing Kansas City Center
Mon 12:05:59 PM 39.8175 -87.6597 278° West 466 536 37,000 634 Climbing Indianapolis Center
Mon 12:07:37 PM 39.8378 -87.9331 276° West 450 518 38,000 375 Climbing Kansas City Center
Mon 12:08:39 PM 39.8511 -88.0969 276° West 451 519 38,000  Level Kansas City Center
Mon 12:09:04 PM 39.8589 -88.1775 277° West 454 522 38,000  Level Indianapolis Center
Mon 12:09:41 PM 39.8642 -88.2656 274° West 458 527 38,000  Level Kansas City Center
Mon 12:10:43 PM 39.8797 -88.4639 276° West 459 528 38,000  Level Kansas City Center
Mon 12:13:10 PM 39.9106 -88.8767 276° West 466 536 38,000  Level Indianapolis Center
Mon 12:13:48 PM 39.9175 -88.9658 276° West 463 533 38,000  Level Kansas City Center
Mon 12:15:52 PM 39.9394 -89.2981 275° West 459 528 38,000  Level Kansas City Center
Mon 12:16:54 PM 39.9511 -89.4647 275° West 460 529 38,000  Level Kansas City Center
Mon 12:19:00 PM 39.9179 -89.7719 262° West  Level FlightAware Approximate
Mon 12:19:59 PM 39.9844 -89.9975 262° West 460 529 38,000  Level Kansas City Center
Mon 12:21:01 PM 39.9944 -90.1636 275° West 460 529 38,000  Level Kansas City Center
Mon 12:22:03 PM 40.0044 -90.3289 275° West 457 526 38,000  Level Kansas City Center
Mon 12:23:05 PM 40.0139 -90.4917 274° West 452 520 38,000  Level Kansas City Center
Mon 12:24:07 PM 40.0233 -90.6556 274° West 451 519 38,000  Level Kansas City Center
Mon 12:25:09 PM 40.0325 -90.8192 274° West 452 520 38,000  Level Kansas City Center
Mon 12:27:12 PM 40.0514 -91.1794 274° West 453 521 38,000  Level Kansas City Center
Mon 12:29:16 PM 40.0689 -91.5078 274° West 456 525 38,000  Level Kansas City Center
Mon 12:30:18 PM 40.0758 -91.6714 273° West 455 524 38,000  Level Kansas City Center
Mon 12:31:20 PM 40.0833 -91.8347 273° West 455 524 38,000 32 Level Kansas City Center
Mon 12:33:00 PM 40.0912 -92.0811 272° West  Level FlightAware Approximate
Mon 12:33:23 PM 40.0994 -92.1928 272° West 451 519 38,100  Level Kansas City Center
Mon 12:34:25 PM 40.1061 -92.3475 273° West 437 503 39,100 745 Climbing Kansas City Center
Mon 12:35:56 PM 40.1139 -92.5525 273° West 408 470 40,000 435 Climbing Minneapolis Center
Mon 12:36:29 PM 40.1192 -92.6361 275° West 402 463 40,000  Level Kansas City Center
Mon 12:39:14 PM 40.1325 -93.0603 272° West 414 476 40,000  Level Minneapolis Center
Mon 12:39:34 PM 40.1342 -93.0897 274° West 415 478 40,000  Level Kansas City Center
Mon 12:40:36 PM 40.1381 -93.2686 272° West 414 476 40,000  Level Kansas City Center
Mon 12:41:38 PM 40.1442 -93.4183 273° West 413 475 40,000  Level Kansas City Center
Mon 12:43:42 PM 40.1542 -93.7178 273° West 415 478 40,000  Level Kansas City Center
Mon 12:44:44 PM 40.1589 -93.8658 272° West 413 475 40,000  Level Kansas City Center
Mon 12:46:28 PM 40.1644 -94.1317 272° West 410 472 40,000  Level Minneapolis Center
Mon 12:46:47 PM 40.1658 -94.1839 272° West 406 467 40,000  Level Kansas City Center
Mon 12:47:49 PM 40.1700 -94.3236 272° West 403 464 40,000  Level Kansas City Center
Mon 12:48:32 PM 40.1700 -94.4228 270° West 403 464 40,000  Level Minneapolis Center
Mon 12:50:36 PM 40.1781 -94.7375 272° West 399 459 40,000  Level Minneapolis Center
Mon 12:51:38 PM 40.1819 -94.8814 272° West 398 458 40,000  Level Minneapolis Center
Mon 12:52:40 PM 40.1850 -95.0258 272° West 397 457 40,000  Level Minneapolis Center
Mon 12:53:42 PM 40.1881 -95.1722 272° West 399 459 40,000  Level Minneapolis Center
Mon 12:54:44 PM 40.1889 -95.3233 270° West 406 467 40,000  Level Minneapolis Center
Mon 12:55:46 PM 40.1917 -95.5000 271° West 407 468 40,000  Level Minneapolis Center
Mon 12:58:09 PM 40.1956 -95.8394 271° West 407 468 40,000  Level Kansas City Center
Mon 12:58:52 PM 40.1983 -95.9458 272° West 410 472 40,000  Level Minneapolis Center
Mon 01:00:56 PM 40.1989 -96.2419 270° West 409 471 40,000  Level Minneapolis Center
Mon 01:03:20 PM 40.1836 -96.6219 267° West 412 474 40,000  Level Kansas City Center
Mon 01:04:02 PM 40.1811 -96.7172 268° West 408 470 40,000  Level Minneapolis Center
Mon 01:07:09 PM 40.1592 -97.1603 266° West 407 468 40,000 181 Level Minneapolis Center
Mon 01:09:33 PM 40.0972 -97.5161 257° West 387 445 41,000 324 Climbing Kansas City Center
Mon 01:10:14 PM 40.0872 -97.5817 259° West 390 449 41,000  Level Minneapolis Center
Mon 01:12:19 PM 40.0358 -97.8914 258° West 395 455 41,000  Level Minneapolis Center
Mon 01:13:21 PM 40.0122 -98.0347 258° West 401 461 41,000  Level Minneapolis Center
Mon 01:16:00 PM 39.9610 -98.2828 255° West  Level FlightAware Approximate
Mon 01:17:20 PM 39.9125 -98.6156 255° West 413 475 41,000  Level Denver Center
Mon 01:18:22 PM 39.8875 -98.7611 257° West 412 474 41,000  Level Denver Center
Mon 01:20:00 PM 39.8142 -98.9811 258° West  Level FlightAware Approximate
Mon 01:20:26 PM 39.8364 -99.0511 258° West 411 473 41,000  Level Denver Center
Mon 01:22:40 PM 39.7789 -99.3686 257° West 410 472 41,000  Level Minneapolis Center
Mon 01:24:00 PM 39.7416 -99.5557 256° West  Level FlightAware Approximate
Mon 01:25:37 PM 39.6994 -99.8000 255° West 407 468 41,000  Level Denver Center
Mon 01:26:39 PM 39.6736 -99.9464 257° West 411 473 41,000  Level Denver Center
Mon 01:27:41 PM 39.6436 -100.1058 256° West 409 471 41,000  Level Denver Center
Mon 01:29:00 PM 39.6014 -100.2883 253° West  Level FlightAware Approximate
Mon 01:29:45 PM 39.5872 -100.4022 253° West 408 470 41,000  Level Denver Center
Mon 01:31:00 PM 39.5409 -100.5347 255° West  Level FlightAware Approximate
Mon 01:31:00 PM 39.5390 -100.5717 250° West  Level FlightAware Approximate
Mon 01:31:49 PM 39.5314 -100.6981 250° West 407 468 41,000  Level Denver Center
Mon 01:32:51 PM 39.5047 -100.8339 256° West 407 468 41,000  Level Denver Center
Mon 01:34:00 PM 39.4705 -100.9939 255° West  Level FlightAware Approximate
Mon 01:34:55 PM 39.4472 -101.1261 255° West 406 467 41,000  Level Denver Center
Mon 01:36:59 PM 39.3897 -101.4158 256° West 400 460 40,600 -323 Descending Denver Center
Mon 01:38:01 PM 39.3614 -101.5547 255° West 413 475 40,000 -290 Descending Denver Center
Mon 01:39:03 PM 39.3303 -101.7142 256° West 411 473 40,000  Level Denver Center
Mon 01:40:05 PM 39.3017 -101.8511 255° West 402 463 40,000  Level Denver Center
Mon 01:42:09 PM 39.2422 -102.1394 255° West 402 463 40,000  Level Denver Center
Mon 01:44:00 PM 39.1719 -102.3888 250° West  Level FlightAware Approximate
Mon 01:46:18 PM 39.1211 -102.7153 254° West 404 465 40,000  Level Denver Center
Mon 01:48:22 PM 39.0583 -103.0047 254° West 403 464 40,000  Level Denver Center
Mon 01:49:36 PM 39.0294 -103.1456 255° West 403 464 40,000  Level Denver Center
Mon 01:50:38 PM 38.9931 -103.3097 254° West 407 468 40,000  Level Denver Center
Mon 01:51:00 PM 38.9476 -103.3480 254° West  Level FlightAware Approximate
Mon 01:51:40 PM 38.9569 -103.4739 254° West 406 467 40,000  Level Denver Center
Mon 01:52:00 PM 38.9166 -103.4853 254° West  Level FlightAware Approximate
Mon 01:52:42 PM 38.9261 -103.6161 254° West 408 470 40,000  Level Denver Center
Mon 01:54:00 PM 38.8718 -103.7882 248° West  Level FlightAware Approximate
Mon 01:54:46 PM 38.8636 -103.8947 248° West 403 464 40,000  Level Denver Center
Mon 01:55:48 PM 38.8336 -104.0278 254° West 403 464 40,000  Level Denver Center
Mon 01:56:50 PM 38.8047 -104.1506 253° West 403 464 40,000  Level Denver Center
Mon 01:57:52 PM 38.7686 -104.3128 254° West 401 461 40,000  Level Denver Center
Mon 01:59:00 PM 38.7253 -104.4644 250° West  Level FlightAware Approximate
Mon 01:59:56 PM 38.7053 -104.5892 250° West 401 461 40,000  Level Denver Center
Mon 02:02:00 PM 38.6143 -104.8624 253° West  Level FlightAware Approximate
Mon 02:03:03 PM 38.6008 -105.0356 253° West 411 473 40,000  Level Denver Center
Mon 02:04:05 PM 38.5672 -105.1761 253° West 410 472 40,000  Level Denver Center
Mon 02:05:07 PM 38.5331 -105.3175 253° West 412 474 40,000  Level Denver Center
Mon 02:06:09 PM 38.5003 -105.4583 253° West 411 473 40,000  Level Denver Center
Mon 02:08:13 PM 38.4317 -105.7414 253° West 413 475 40,000  Level Denver Center
Mon 02:10:00 PM 38.3429 -105.9709 253° West  Level FlightAware Approximate
Mon 02:10:17 PM 38.3578 -106.0414 253° West 415 478 40,000  Level Denver Center
Mon 02:12:21 PM 38.2878 -106.3264 253° West 416 479 40,000  Level Denver Center
Mon 02:13:35 PM 38.2525 -106.4675 252° West 416 479 40,000  Level Denver Center
Mon 02:15:00 PM 38.1992 -106.6561 250° West  Level FlightAware Approximate
Mon 02:18:45 PM 38.0581 -107.2297 250° West 407 468 40,000  Level Denver Center
Mon 02:19:47 PM 38.0244 -107.3617 252° West 410 472 40,000  Level Denver Center
Mon 02:21:00 PM 37.9615 -107.5171 249° West  Level FlightAware Approximate
Mon 02:21:50 PM 37.9483 -107.6464 249° West 411 473 40,000  Level Denver Center
Mon 02:22:00 PM 37.9371 -107.5872 251° West  Level FlightAware Approximate
Mon 02:22:52 PM 37.9078 -107.7742 248° West 409 471 40,000  Level Denver Center
Mon 02:23:00 PM 37.9014 -107.7207 251° West  Level FlightAware Approximate
Mon 02:24:00 PM 37.8655 -107.8540 250° West  Level FlightAware Approximate
Mon 02:24:00 PM 37.8603 -107.9217 248° West  Level FlightAware Approximate
Mon 02:24:56 PM 37.8228 -108.0511 248° West 408 470 40,000  Level Denver Center
Mon 02:25:57 PM 37.7892 -108.1564 248° West 408 470 40,000  Level Denver Center
Mon 02:27:00 PM 37.7369 -108.3242 249° West 402 463 40,000  Level Denver Center
Mon 02:28:02 PM 37.6908 -108.4717 248° West 402 463 40,000  Level Denver Center
Mon 02:30:05 PM 37.6044 -108.7456 248° West 407 468 40,000  Level Denver Center
Mon 02:31:07 PM 37.5642 -108.8703 248° West 404 465 40,000  Level Denver Center
Mon 02:33:11 PM 37.4775 -109.1378 248° West 402 463 40,000  Level Denver Center
Mon 02:35:00 PM 37.3925 -109.3680 245° Southwest  Level FlightAware Approximate
Mon 02:36:24 PM 37.3439 -109.5500 245° Southwest 403 464 40,000  Level Los Angeles Center
Mon 02:37:30 PM 37.3022 -109.6744 247° West 397 457 40,000  Level Denver Center
Mon 02:38:32 PM 37.2483 -109.8383 248° West 399 459 40,000  Level Denver Center
Mon 02:40:35 PM 37.1658 -110.0858 247° West 405 466 40,000  Level Denver Center
Mon 02:42:00 PM 37.0816 -110.2552 247° West  Level FlightAware Approximate
Mon 02:43:41 PM 37.0344 -110.4772 247° West 402 463 40,000  Level Denver Center
Mon 02:45:43 PM 36.9339 -110.7658 247° West 408 470 40,000  Level Los Angeles Center
Mon 02:46:46 PM 36.8925 -110.8944 248° West 404 465 40,000  Level Denver Center
Mon 02:48:49 PM 36.7992 -111.1542 246° West 405 466 40,000  Level Los Angeles Center
Mon 02:49:00 PM 36.7780 -111.1497 247° West  Level FlightAware Approximate
Mon 02:50:00 PM 36.7413 -111.2988 243° Southwest  Level FlightAware Approximate
Mon 02:50:53 PM 36.7142 -111.4081 243° Southwest 403 464 40,000  Level Denver Center
Mon 02:51:55 PM 36.6603 -111.5611 246° West 403 464 40,000  Level Denver Center
Mon 02:53:09 PM 36.6161 -111.6875 247° West 400 460 40,000  Level Denver Center
Mon 02:55:00 PM 36.5687 -111.8125 245° Southwest  Level FlightAware Approximate
Mon 02:56:04 PM 36.4808 -112.0658 245° Southwest 394 453 40,000  Level Los Angeles Center
Mon 02:57:06 PM 36.4261 -112.2178 246° West 400 460 40,000  Level Los Angeles Center
Mon 02:58:08 PM 36.3814 -112.3442 246° West 399 459 40,000  Level Los Angeles Center
Mon 02:59:11 PM 36.3367 -112.4689 246° West 397 457 40,000  Level Los Angeles Center
Mon 03:00:13 PM 36.2911 -112.5942 246° West 397 457 40,000  Level Los Angeles Center
Mon 03:01:15 PM 36.2450 -112.7189 245° Southwest 397 457 40,000  Level Los Angeles Center
Mon 03:02:17 PM 36.1997 -112.8433 246° West 396 456 40,000  Level Los Angeles Center
Mon 03:03:19 PM 36.1539 -112.9661 245° Southwest 396 456 40,000  Level Los Angeles Center
Mon 03:04:21 PM 36.0986 -113.1156 245° Southwest 395 455 40,000  Level Los Angeles Center
Mon 03:05:23 PM 36.0511 -113.2417 245° Southwest 399 459 40,000  Level Los Angeles Center
Mon 03:06:25 PM 36.0042 -113.3711 246° West 405 466 40,000  Level Los Angeles Center
Mon 03:07:27 PM 35.9606 -113.4900 246° West 401 461 40,000  Level Los Angeles Center
Mon 03:09:31 PM 35.8672 -113.7400 245° Southwest 392 451 40,000 -65 Level Los Angeles Center
Mon 03:10:32 PM 35.8117 -113.8856 245° Southwest 391 450 39,800 -854 Descending Los Angeles Center
Mon 03:12:00 PM 35.7410 -114.0641 244° Southwest  Level FlightAware Approximate
Mon 03:14:40 PM 35.6275 -114.3656 245° Southwest 379 436 35,600  Level Los Angeles Center
Mon 03:15:42 PM 35.5850 -114.4764 245° Southwest 361 415 34,400 -774 Descending Los Angeles Center
Mon 03:16:44 PM 35.5469 -114.5797 246° West 336 387 34,000 -194 Descending Los Angeles Center
Mon 03:17:46 PM 35.5006 -114.6967 244° Southwest 319 367 34,000  Level Los Angeles Center
Mon 03:18:48 PM 35.4597 -114.8025 245° Southwest 338 389 34,000  Level Los Angeles Center
Mon 03:19:00 PM 35.4015 -114.9129 244° Southwest  Level FlightAware Approximate
Mon 03:19:50 PM 35.4178 -114.9092 244° Southwest 344 396 34,000  Level Los Angeles Center
Mon 03:20:00 PM 35.3543 -115.0346 245° Southwest  Level FlightAware Approximate
Mon 03:21:54 PM 35.3358 -115.1206 245° Southwest 343 395 34,000  Level Los Angeles Center
Mon 03:22:56 PM 35.2950 -115.2267 245° Southwest 344 396 34,000  Level Los Angeles Center
Mon 03:25:00 PM 35.2036 -115.4556 244° Southwest 339 390 34,000 -194 Level Los Angeles Center
Mon 03:26:00 PM 35.1551 -115.5747 244° Southwest  Level FlightAware Approximate
Mon 03:26:02 PM 35.1658 -115.5528 270° West 337 388 33,400  Level Los Angeles Center
Mon 03:27:04 PM 35.1239 -115.6550 244° Southwest 336 387 32,500 -1,517 Descending Los Angeles Center
Mon 03:29:00 PM 35.0292 -115.8844 243° Southwest  Level FlightAware Approximate
Mon 03:33:00 PM 34.8942 -116.4167 249° West  Level Estimated
Mon 03:33:29 PM 34.8636 -116.3014 249° West 333 383 22,100  Level Los Angeles Center
Mon 03:35:00 PM 34.8089 -116.4910 265° West  Level Estimated
Mon 03:36:00 PM 34.7571 -116.7339 260° West  Level FlightAware Approximate
Mon 03:36:35 PM 34.7800 -116.6378 260° West 364 419 20,000  Level Los Angeles Center
Mon 03:37:00 PM 34.7500 -116.8655 270° West  Level FlightAware Approximate
Mon 03:37:37 PM 34.7664 -116.7825 264° West 359 413 20,000  Level Los Angeles Center
Mon 03:38:39 PM 34.7536 -116.9028 263° West 358 412 20,000  Level Los Angeles Center
Mon 03:40:00 PM 34.7304 -117.0792 261° West  Level FlightAware Approximate
Mon 03:40:44 PM 34.7294 -117.1400 261° West 354 407 20,000  Level Los Angeles Center
Mon 03:41:46 PM 34.7164 -117.2586 262° West 353 406 18,700 -1,306 Descending Los Angeles Center
Mon 03:42:00 PM 34.5527 -117.3629 260° West  Level Estimated
Mon 03:42:48 PM 34.7044 -117.3800 263° West 358 412 17,300  Level Los Angeles Center
Mon 03:44:00 PM 34.6806 -117.5360 260° West  Level FlightAware Approximate
Mon 03:46:56 PM 34.6469 -117.8717 248° West 340 391 12,700  Level Los Angeles Center
Mon 03:47:58 PM 34.6308 -117.9639 258° West 282 325 11,200 -1,085 Descending Los Angeles Center
Mon 03:49:00 PM 34.6091 -118.0956 259° West  Level FlightAware Approximate
Mon 03:51:00 PM 34.5359 -118.4282 239° Southwest  Level FlightAware Approximate
Mon 03:51:16 PM 34.5842 -118.2517 180° South 267 307 8,000  Level Los Angeles Center
Mon 03:52:00 PM 34.5116 -118.5486 248° West  Level FlightAware Approximate
Mon 03:52:18 PM 34.5672 -118.3497 258° West 252 290 7,900  Level Los Angeles Center
Mon 03:53:21 PM 34.5492 -118.4289 255° West 250 288 7,900 48 Level Los Angeles Center
Mon 03:54:23 PM 34.5311 -118.5111 255° West 252 290 8,000 -48 Climbing Los Angeles Center
Mon 03:55:25 PM 34.4897 -118.5722 231° Southwest 251 289 7,800 -484 Descending Los Angeles Center
Mon 03:56:00 PM 34.2000 -118.4833 180° South  Level FlightAware Approximate
Mon 03:56:27 PM 34.4333 -118.5575 168° South 204 235 7,000  Level Los Angeles Center
Mon 03:58:07 PM 34.3333 -118.5167 161° South 198 228 4,500 -1,391 Descending Southern California TRACON
Mon 04:00:07 PM 34.2500 -118.5000 171° South 140 161 1,900 -882 Descending Southern California TRACON
Mon 04:01:38 PM 34.2022 -118.4906 171° South 149 171 1,400 -330 Descending Los Angeles Center
Mon 04:03:00 PM 34.2000 -118.4833 180° South  Level FlightAware Approximate
Mon 04:10:00 PM 34.2098 -118.4900 180° South  Level Estimated
Mon 04:11:00 PM 34.2098 -118.4900 180° South  Level Estimated
Mon 04:12:00 PM 34.2098 -118.4900 180° South  Level Estimated
Mon 04:13:00 PM 34.2098 -118.4900 180° South  Level Estimated
Mon 04:14:00 PM 34.2098 -118.4900 180° South  Level Estimated

Login

Don't have an account? Register now (free) for customized features, flight alerts, and more!